Time;durP1;ratioP1;P1;durP2;ratioP2;P2;SDS_P1;SDS_P2;PMS_P1;PMS_P2;Temp;Humidity;BMP_temperature;BMP_pressure;BME280_temperature;BME280_humidity;BME280_pressure;Samples;Min_cycle;Max_cycle;Signal;HPM_P1;HPM_P2
2021/12/07 00:00:40;;;;;;;45.28;21.45;;;;;;;1.87;100.00;99296.58;1712165;82;21069;-79
2021/12/07 00:03:06;;;;;;;40.30;19.62;;;;;;;1.86;100.00;99287.09;1695606;82;21002;-79
2021/12/07 00:05:33;;;;;;;43.08;21.35;;;;;;;1.89;100.00;99300.46;1683582;84;21623;-79
2021/12/07 00:07:59;;;;;;;48.15;21.68;;;;;;;1.89;100.00;99300.46;1683800;85;21036;-79
2021/12/07 00:10:26;;;;;;;51.35;23.02;;;;;;;1.87;100.00;99295.73;1683727;85;22035;-78
2021/12/07 00:12:53;;;;;;;47.35;22.70;;;;;;;1.88;100.00;99291.79;1683463;85;21794;-78
2021/12/07 00:15:22;;;;;;;44.63;20.97;;;;;;;1.84;100.00;99291.45;1683832;83;21121;-79
2021/12/07 00:17:48;;;;;;;43.05;20.45;;;;;;;1.85;100.00;99303.53;1683790;85;21568;-78
2021/12/07 00:20:17;;;;;;;52.62;22.95;;;;;;;1.85;100.00;99303.53;1688604;83;21030;-77
2021/12/07 00:22:46;;;;;;;47.10;21.55;;;;;;;1.85;100.00;99303.53;1712568;83;22017;-78
2021/12/07 00:25:13;;;;;;;53.33;22.70;;;;;;;1.86;100.00;99300.07;1712559;83;21038;-78
2021/12/07 00:27:40;;;;;;;49.90;23.18;;;;;;;1.83;100.00;99293.61;1712523;82;21089;-79
2021/12/07 00:30:08;;;;;;;54.85;22.50;;;;;;;1.82;100.00;99291.91;1712595;83;21054;-78
2021/12/07 00:32:40;;;;;;;52.65;22.62;;;;;;;1.78;100.00;99298.02;1712781;83;21070;-79
2021/12/07 00:35:33;;;;;;;45.73;22.13;;;;;;;1.75;100.00;99307.57;1712576;82;21149;-77
2021/12/07 00:37:53;;;;;;;47.15;22.15;;;;;;;1.74;100.00;99308.02;1710527;82;21649;-79
2021/12/07 00:40:19;;;;;;;49.55;24.10;;;;;;;1.73;100.00;99299.83;1712439;82;21143;-79
2021/12/07 00:42:47;;;;;;;44.40;21.30;;;;;;;1.74;100.00;99298.08;1712280;83;21295;-78
2021/12/07 00:45:18;;;;;;;51.68;23.40;;;;;;;1.69;100.00;99292.95;1712662;82;21026;-79
2021/12/07 00:47:44;;;;;;;48.80;21.80;;;;;;;1.67;100.00;99280.44;1712530;83;21168;-80
2021/12/07 00:50:11;;;;;;;52.33;23.60;;;;;;;1.60;100.00;99283.56;1711725;83;21122;-79
2021/12/07 00:52:38;;;;;;;245.70;55.40;;;;;;;1.55;100.00;99293.59;1710843;83;21102;-78
2021/12/07 00:55:09;;;;;;;281.55;59.50;;;;;;;1.53;100.00;99294.05;1711660;83;21562;-78
2021/12/07 00:57:36;;;;;;;115.67;34.18;;;;;;;1.50;100.00;99295.41;1712654;82;21127;-79
2021/12/07 01:00:12;;;;;;;217.43;47.35;;;;;;;1.52;100.00;99295.80;1719311;82;22247;-77
2021/12/07 01:02:42;;;;;;;166.80;42.93;;;;;;;1.52;100.00;99289.31;1691036;84;21042;-77
2021/12/07 01:05:17;;;;;;;71.60;26.17;;;;;;;1.54;100.00;99298.35;1691562;84;21074;-76
2021/12/07 01:26:41;;;;;;;48.20;18.35;;;;;;;1.74;100.00;99304.12;1691349;83;21145;-82
2021/12/07 01:29:07;;;;;;;53.33;23.20;;;;;;;1.70;100.00;99307.63;1691737;84;21114;-81
2021/12/07 01:31:48;;;;;;;59.58;25.17;;;;;;;1.71;100.00;99304.18;1691488;83;21122;-83
2021/12/07 01:34:27;;;;;;;58.73;25.10;;;;;;;1.71;100.00;99292.50;1689922;84;21117;-81
2021/12/07 01:45:39;;;;;;;55.85;24.10;;;;;;;1.73;100.00;99292.04;1691406;84;21055;-80
2021/12/07 01:50:25;;;;;;;52.48;22.58;;;;;;;1.71;100.00;99298.14;1694916;84;21062;-87
2021/12/07 01:53:07;;;;;;;58.15;24.87;;;;;;;1.74;100.00;99298.08;1692172;84;21228;-85
2021/12/07 02:00:53;;;;;;;53.75;24.23;;;;;;;1.76;100.00;99297.63;1689176;83;21042;-84
2021/12/07 02:03:20;;;;;;;;;;;;;;;1.80;100.00;99304.05;1691294;83;20994;-85
2021/12/07 02:05:46;;;;;;;46.55;21.77;;;;;;;1.80;100.00;99311.84;1675792;85;21126;-84
2021/12/07 02:08:15;;;;;;;47.75;23.45;;;;;;;1.79;100.00;99311.40;1686547;84;21062;-87
2021/12/07 02:10:42;;;;;;;61.98;26.33;;;;;;;1.79;100.00;99309.25;1687866;85;20991;-83
2021/12/07 02:14:04;;;;;;;72.65;28.17;;;;;;;1.76;100.00;99297.63;1687839;82;21002;-84
2021/12/07 02:15:50;;;;;;;73.65;30.48;;;;;;;1.80;100.00;99302.75;1685639;83;21080;-82
2021/12/07 02:18:18;;;;;;;70.30;30.72;;;;;;;1.78;100.00;99295.87;1686118;85;21033;-82
2021/12/07 02:20:47;;;;;;;58.83;24.57;;;;;;;1.77;100.00;99289.83;1684233;84;21045;-82
2021/12/07 02:23:17;;;;;;;56.65;24.12;;;;;;;1.72;100.00;99287.71;1684125;85;21602;-82
2021/12/07 02:25:45;;;;;;;;;;;;;;;1.72;100.00;99287.71;1700287;83;21062;-83
2021/12/07 02:28:14;;;;;;;60.85;25.05;;;;;;;1.67;100.00;99294.72;1713427;83;20516;-81
2021/12/07 02:30:41;;;;;;;49.55;22.10;;;;;;;1.66;100.00;99300.80;1713497;83;21218;-87
2021/12/07 02:33:09;;;;;;;57.78;25.02;;;;;;;1.66;100.00;99300.80;1713744;83;21077;-85
2021/12/07 02:35:38;;;;;;;55.85;24.32;;;;;;;1.74;100.00;99304.12;1713572;83;21073;-86
2021/12/07 02:38:05;;;;;;;54.08;23.00;;;;;;;1.74;100.00;99304.12;1713675;83;21034;-84
2021/12/07 02:40:35;;;;;;;46.23;21.95;;;;;;;1.79;100.00;99318.34;1713354;82;21062;-84
2021/12/07 02:43:02;;;;;;;42.98;18.92;;;;;;;1.82;100.00;99331.30;1713495;82;21109;-82
2021/12/07 02:45:29;;;;;;;52.58;23.70;;;;;;;1.79;100.00;99333.47;1712980;83;21085;-83
2021/12/07 02:47:57;;;;;;;55.17;23.47;;;;;;;1.81;100.00;99330.86;1714775;83;21072;-81
2021/12/07 02:50:24;;;;;;;60.25;25.50;;;;;;;1.78;100.00;99330.47;1719169;83;21538;-84
2021/12/07 02:52:52;;;;;;;61.48;25.75;;;;;;;1.78;100.00;99332.21;1719849;83;21055;-85
2021/12/07 02:55:19;;;;;;;57.20;24.45;;;;;;;1.79;100.00;99321.78;1718235;82;22377;-82
2021/12/07 02:57:50;;;;;;;51.27;21.90;;;;;;;1.79;100.00;99321.78;1713698;83;21043;-85
2021/12/07 03:00:25;;;;;;;45.60;21.45;;;;;;;1.83;100.00;99320.87;1723259;82;21555;-83
2021/12/07 03:03:02;;;;;;;44.50;21.30;;;;;;;1.80;100.00;99322.22;1726747;82;21494;-84
2021/12/07 03:05:39;;;;;;;48.75;21.02;;;;;;;1.80;100.00;99318.33;1724924;82;21238;-83
2021/12/07 03:27:07;;;;;;;44.00;17.52;;;;;;;1.43;100.00;99295.48;1709384;84;21034;-84
2021/12/07 03:29:34;;;;;;;40.58;18.92;;;;;;;1.43;100.00;99295.48;1701482;81;21085;-87
2021/12/07 03:32:03;;;;;;;39.75;18.23;;;;;;;1.42;100.00;99304.56;1696063;81;20993;-86
2021/12/07 03:34:31;;;;;;;41.58;18.50;;;;;;;1.44;100.00;99307.56;1696086;81;21137;-86
2021/12/07 03:36:57;;;;;;;41.75;18.42;;;;;;;1.52;100.00;99300.11;1695814;83;21007;-84
2021/12/07 03:39:24;;;;;;;38.92;17.27;;;;;;;1.56;100.00;99296.15;1696013;84;21097;-83
2021/12/07 03:41:52;;;;;;;44.63;19.15;;;;;;;1.55;100.00;99309.17;1695745;84;21474;-85
2021/12/07 03:44:19;;;;;;;43.60;19.55;;;;;;;1.57;100.00;99306.12;1695678;84;21111;-86
2021/12/07 03:46:46;;;;;;;35.63;17.02;;;;;;;1.54;100.00;99303.55;1693514;84;21568;-86
2021/12/07 03:49:14;;;;;;;35.90;18.02;;;;;;;1.54;100.00;99301.83;1692602;84;21076;-85
2021/12/07 03:51:40;;;;;;;37.75;17.45;;;;;;;1.60;100.00;99313.41;1691924;84;21022;-84
2021/12/07 03:54:07;;;;;;;37.55;17.50;;;;;;;1.65;100.00;99332.80;1691942;84;21615;-81
2021/12/07 03:56:34;;;;;;;40.90;18.67;;;;;;;1.74;100.00;99333.13;1691633;84;21655;-83
2021/12/07 03:59:01;;;;;;;35.90;17.42;;;;;;;1.74;100.00;99333.13;1695614;83;21752;-84
2021/12/07 04:01:28;;;;;;;40.17;18.62;;;;;;;1.74;100.00;99333.13;1718667;83;21060;-85
2021/12/07 04:03:56;;;;;;;41.85;19.07;;;;;;;1.81;100.00;99333.00;1718630;83;21068;-86
2021/12/07 04:06:22;;;;;;;37.67;18.55;;;;;;;1.84;100.00;99340.77;1718477;83;21005;-85
2021/12/07 04:08:49;;;;;;;38.08;18.30;;;;;;;1.90;100.00;99332.02;1719199;83;21491;-86
2021/12/07 04:11:16;;;;;;;36.35;18.15;;;;;;;1.90;100.00;99332.02;1718633;83;21937;-83
2021/12/07 04:13:45;;;;;;;36.05;17.12;;;;;;;1.92;100.00;99338.50;1718122;83;21645;-82
2021/12/07 04:16:13;;;;;;;36.60;16.60;;;;;;;1.93;100.00;99341.05;1713398;83;21544;-83
2021/12/07 04:18:41;;;;;;;24.90;12.23;;;;;;;1.88;100.00;99335.93;1713301;82;20998;-84
2021/12/07 04:21:08;;;;;;;34.23;16.20;;;;;;;1.87;100.00;99346.36;1713157;82;21499;-82
2021/12/07 04:23:34;;;;;;;28.15;14.87;;;;;;;1.93;100.00;99350.59;1713131;82;21166;-81
2021/12/07 04:26:07;;;;;;;26.23;14.23;;;;;;;1.94;100.00;99352.33;1712878;82;21051;-81
2021/12/07 04:28:34;;;;;;;29.77;15.10;;;;;;;1.94;100.00;99358.82;1713190;83;21130;-84
2021/12/07 04:31:01;;;;;;;22.87;12.58;;;;;;;1.95;100.00;99354.88;1712955;83;20998;-83
2021/12/07 04:33:30;;;;;;;27.82;15.63;;;;;;;1.93;100.00;99355.78;1713290;83;21849;-83
2021/12/07 04:35:57;;;;;;;26.55;14.43;;;;;;;2.02;100.00;99355.66;1712940;83;21801;-83
2021/12/07 04:38:24;;;;;;;27.27;14.33;;;;;;;2.02;100.00;99355.66;1710706;83;21069;-77
2021/12/07 04:40:50;;;;;;;27.30;14.23;;;;;;;2.02;100.00;99358.25;1710467;82;21569;-65
2021/12/07 04:43:17;;;;;;;26.55;14.60;;;;;;;2.01;100.00;99362.59;1708322;83;21145;-67
2021/12/07 04:59:06;;;;;;;30.40;14.30;;;;;;;2.05;100.00;99394.59;1712690;82;21051;-67
2021/12/07 05:01:34;;;;;;;29.65;15.72;;;;;;;2.03;100.00;99391.15;1715747;83;21630;-64
2021/12/07 05:04:07;;;;;;;28.73;14.73;;;;;;;2.03;100.00;99384.66;1724358;83;21010;-64
2021/12/07 05:06:32;;;;;;;29.42;15.50;;;;;;;2.06;100.00;99380.70;1723187;83;21026;-65
2021/12/07 05:09:20;;;;;;;29.30;15.28;;;;;;;2.10;100.00;99369.40;1724816;83;21053;-66
2021/12/07 05:12:03;;;;;;;32.60;15.83;;;;;;;2.08;100.00;99372.45;1716405;83;21121;-67
2021/12/07 05:14:23;;;;;;;29.77;15.58;;;;;;;2.03;100.00;99373.82;1720972;82;21168;-68
2021/12/07 05:25:15;;;;;;;34.88;16.52;;;;;;;2.04;100.00;99390.25;1723672;83;21044;-66
2021/12/07 05:37:53;;;;;;;30.65;15.15;;;;;;;2.05;100.00;99384.20;1724779;83;21047;-73
2021/12/07 05:40:30;;;;;;;36.93;17.42;;;;;;;2.00;100.00;99383.37;1724887;83;21124;-74
2021/12/07 05:42:57;;;;;;;21.45;11.12;;;;;;;1.97;100.00;99380.84;1723780;83;21575;-73
2021/12/07 05:45:30;;;;;;;36.42;18.40;;;;;;;1.94;100.00;99383.48;1723440;82;21117;-74
2021/12/07 05:47:57;;;;;;;34.10;17.35;;;;;;;2.00;100.00;99384.68;1723625;83;21529;-72
2021/12/07 05:50:26;;;;;;;34.18;17.27;;;;;;;1.99;100.00;99385.13;1724420;82;21123;-75
2021/12/07 05:52:52;;;;;;;30.72;15.25;;;;;;;1.99;100.00;99385.13;1724978;83;21572;-74
2021/12/07 05:55:18;;;;;;;41.18;18.12;;;;;;;1.97;100.00;99391.23;1724996;83;21061;-76
2021/12/07 05:57:45;;;;;;;40.00;19.82;;;;;;;1.94;100.00;99396.47;1724897;82;21073;-75
2021/12/07 06:00:23;;;;;;;41.63;19.67;;;;;;;1.91;100.00;99405.58;1710350;83;21068;-74
2021/12/07 06:02:45;;;;;;;39.73;18.20;;;;;;;1.92;100.00;99408.61;1722602;82;21056;-75
2021/12/07 06:05:11;;;;;;;35.75;16.17;;;;;;;1.88;100.00;99400.84;1740849;81;21814;-74
2021/12/07 06:07:37;;;;;;;36.23;17.27;;;;;;;1.86;100.00;99392.25;1719042;82;21282;-74
2021/12/07 06:10:06;;;;;;;35.68;16.82;;;;;;;1.86;100.00;99392.25;1708514;83;21077;-75
2021/12/07 06:12:33;;;;;;;34.48;17.80;;;;;;;1.84;100.00;99374.94;1712306;83;21549;-74
2021/12/07 06:15:00;;;;;;;31.57;15.40;;;;;;;1.80;100.00;99371.55;1711947;83;21053;-76
2021/12/07 06:17:26;;;;;;;31.55;14.70;;;;;;;1.76;100.00;99367.72;1708915;83;21223;-76
2021/12/07 06:19:53;;;;;;;29.72;14.15;;;;;;;1.71;100.00;99370.38;1706232;83;21084;-77
2021/12/07 06:22:21;;;;;;;24.20;11.53;;;;;;;1.64;100.00;99364.84;1711904;82;21360;-77
2021/12/07 06:24:48;;;;;;;26.23;13.58;;;;;;;1.61;100.00;99364.86;1712156;83;21025;-76
2021/12/07 06:27:14;;;;;;;22.80;11.12;;;;;;;1.62;100.00;99358.36;1712068;83;21085;-76
2021/12/07 06:29:40;;;;;;;25.57;13.25;;;;;;;1.62;100.00;99367.45;1712581;83;21066;-77
2021/12/07 06:32:08;;;;;;;24.55;11.57;;;;;;;1.65;100.00;99375.19;1711956;83;22144;-76
2021/12/07 06:34:35;;;;;;;22.45;10.82;;;;;;;1.66;100.00;99382.11;1689593;83;21129;-78
2021/12/07 06:37:02;;;;;;;22.17;11.65;;;;;;;1.64;100.00;99388.20;1711965;83;21100;-77
2021/12/07 06:39:28;;;;;;;20.60;10.72;;;;;;;1.65;100.00;99392.50;1709524;83;21092;-76
2021/12/07 06:41:55;;;;;;;20.25;10.82;;;;;;;1.66;100.00;99395.53;1700898;82;21091;-77
2021/12/07 06:44:21;;;;;;;19.42;10.65;;;;;;;1.66;100.00;99398.98;1710470;83;21031;-77
2021/12/07 06:46:48;;;;;;;18.50;9.33;;;;;;;1.68;100.00;99414.55;1712121;83;21030;-77
2021/12/07 06:49:17;;;;;;;18.73;9.48;;;;;;;1.69;100.00;99412.36;1710292;82;21030;-80
2021/12/07 06:51:44;;;;;;;20.23;10.18;;;;;;;1.72;100.00;99416.20;1708634;83;21146;-78
2021/12/07 06:54:11;;;;;;;17.73;9.20;;;;;;;1.71;100.00;99418.39;1711456;82;21184;-79
2021/12/07 06:56:38;;;;;;;18.55;9.83;;;;;;;1.71;100.00;99418.39;1719762;82;21042;-78
2021/12/07 06:59:04;;;;;;;14.95;8.45;;;;;;;1.77;100.00;99420.04;1709221;82;21034;-78
2021/12/07 07:01:32;;;;;;;19.70;10.48;;;;;;;1.77;100.00;99433.91;1681833;84;21060;-76
2021/12/07 07:04:00;;;;;;;20.85;11.40;;;;;;;1.77;100.00;99433.91;1719911;83;21068;-77
2021/12/07 07:06:27;;;;;;;23.05;10.25;;;;;;;1.71;100.00;99445.66;1715301;83;21151;-78
2021/12/07 07:08:54;;;;;;;18.80;9.95;;;;;;;1.70;100.00;99445.21;1711163;83;22275;-77
2021/12/07 07:11:23;;;;;;;18.87;9.00;;;;;;;1.70;100.00;99445.21;1712306;82;21069;-77
2021/12/07 07:13:49;;;;;;;21.77;10.20;;;;;;;1.67;100.00;99437.47;1707068;81;21077;-75
2021/12/07 07:16:16;;;;;;;15.85;8.23;;;;;;;1.67;100.00;99437.47;1717119;81;21073;-78
2021/12/07 07:18:43;;;;;;;17.73;8.95;;;;;;;1.73;100.00;99449.09;1714312;81;21120;-79
2021/12/07 07:21:10;;;;;;;15.48;8.48;;;;;;;1.79;100.00;99450.30;1716642;83;21085;-79
2021/12/07 07:23:38;;;;;;;17.30;8.15;;;;;;;1.81;100.00;99448.54;1713432;83;21067;-76
2021/12/07 07:26:05;;;;;;;14.65;7.78;;;;;;;1.80;100.00;99453.77;1697032;82;21567;-77
2021/12/07 07:28:33;;;;;;;16.60;8.33;;;;;;;1.82;100.00;99450.28;1710291;83;21069;-76
2021/12/07 07:31:00;;;;;;;12.05;7.37;;;;;;;1.86;100.00;99446.77;1713251;83;21100;-77
2021/12/07 07:33:27;;;;;;;14.05;7.25;;;;;;;1.87;100.00;99445.88;1672497;84;21500;-77
2021/12/07 07:35:54;;;;;;;12.33;6.45;;;;;;;1.88;100.00;99448.03;1678194;84;21607;-77
2021/12/07 07:38:20;;;;;;;12.45;6.70;;;;;;;1.94;100.00;99443.21;1682070;83;21013;-78
2021/12/07 07:40:47;;;;;;;13.93;7.62;;;;;;;1.94;100.00;99443.21;1709443;83;21002;-76
2021/12/07 07:43:16;;;;;;;14.00;7.05;;;;;;;1.98;100.00;99446.16;1677453;84;21779;-75
2021/12/07 07:45:46;;;;;;;10.48;6.45;;;;;;;1.98;100.00;99449.65;1678113;84;21069;-78
2021/12/07 07:48:13;;;;;;;18.65;7.58;;;;;;;2.00;100.00;99450.48;1690388;84;21163;-77
2021/12/07 07:50:40;;;;;;;12.95;6.85;;;;;;;2.02;100.00;99470.78;1686122;84;21099;-78
2021/12/07 07:53:07;;;;;;;11.10;6.22;;;;;;;2.03;100.00;99479.45;1682761;84;21152;-76
2021/12/07 07:55:35;;;;;;;9.63;5.35;;;;;;;2.03;100.00;99472.96;1672863;84;21538;-78
2021/12/07 07:58:03;;;;;;;15.90;6.70;;;;;;;2.01;100.00;99475.56;1681622;83;21049;-78
2021/12/07 08:00:30;;;;;;;10.43;6.17;;;;;;;2.04;100.00;99466.87;1687632;83;21002;-78
2021/12/07 08:02:57;;;;;;;11.65;6.00;;;;;;;2.03;100.00;99470.36;1677466;84;21068;-78
2021/12/07 08:05:24;;;;;;;12.13;6.25;;;;;;;2.01;100.00;99472.11;1673375;84;21084;-77
2021/12/07 08:07:51;;;;;;;10.43;4.97;;;;;;;2.05;100.00;99469.91;1671901;84;21576;-77
2021/12/07 08:10:21;;;;;;;12.53;5.30;;;;;;;2.05;100.00;99469.91;1677818;83;21077;-78
2021/12/07 08:18:11;;;;;;;11.53;6.80;;;;;;;2.06;100.00;99456.88;1782331;78;23643;-78
2021/12/07 08:20:38;;;;;;;12.63;6.25;;;;;;;2.06;100.00;99453.43;1718515;80;21096;-77
2021/12/07 08:23:04;;;;;;;13.03;6.45;;;;;;;2.13;100.00;99449.86;1725760;81;21107;-75
2021/12/07 08:25:33;;;;;;;11.63;5.85;;;;;;;2.14;100.00;99443.81;1750172;80;21113;-76
2021/12/07 08:28:01;;;;;;;11.33;5.53;;;;;;;2.09;100.00;99445.59;1734445;81;21009;-76
2021/12/07 08:30:27;;;;;;;10.72;5.60;;;;;;;2.01;100.00;99448.30;1755290;81;21358;-75
2021/12/07 08:32:54;;;;;;;10.38;5.55;;;;;;;2.01;100.00;99448.30;1751888;81;21041;-77
2021/12/07 08:35:21;;;;;;;11.10;5.75;;;;;;;2.01;100.00;99451.34;1747803;81;21505;-79
2021/12/07 08:37:48;;;;;;;10.15;5.42;;;;;;;2.01;100.00;99453.94;1749181;81;20990;-77
2021/12/07 08:40:18;;;;;;;11.05;6.03;;;;;;;2.01;100.00;99453.94;1751027;81;21044;-77
2021/12/07 08:42:47;;;;;;;9.28;5.65;;;;;;;2.01;100.00;99450.89;1759319;80;21055;-77
2021/12/07 08:45:14;;;;;;;10.58;6.33;;;;;;;2.00;100.00;99456.98;1789209;80;21412;-77
2021/12/07 08:47:41;;;;;;;10.10;6.03;;;;;;;1.94;100.00;99462.69;1780747;80;21906;-76
2021/12/07 08:50:15;;;;;;;9.03;4.70;;;;;;;1.94;100.00;99462.69;1762620;80;21036;-76
2021/12/07 08:52:42;;;;;;;9.23;5.67;;;;;;;1.86;100.00;99459.75;1782261;80;21064;-76
2021/12/07 09:00:33;;;;;;;9.85;6.67;;;;;;;1.85;100.00;99471.00;1777883;80;21137;-76
2021/12/07 09:03:00;;;;;;;10.03;5.70;;;;;;;1.86;100.00;99464.95;1758768;81;21188;-76
2021/12/07 09:05:26;;;;;;;9.53;5.62;;;;;;;1.88;100.00;99464.45;1758720;81;21044;-78
2021/12/07 09:07:53;;;;;;;9.05;5.30;;;;;;;1.88;100.00;99459.27;1758615;81;21033;-78
2021/12/07 09:10:20;;;;;;;9.60;5.60;;;;;;;1.85;100.00;99455.42;1759067;81;21104;-79
2021/12/07 09:12:48;;;;;;;7.83;5.22;;;;;;;1.83;100.00;99448.53;1759128;81;21024;-77
2021/12/07 09:15:14;;;;;;;9.98;6.47;;;;;;;1.87;100.00;99444.58;1758871;81;21040;-77
2021/12/07 09:17:41;;;;;;;8.95;5.85;;;;;;;1.84;100.00;99444.63;1752430;80;21036;-76
2021/12/07 09:20:11;;;;;;;10.15;5.25;;;;;;;1.80;100.00;99428.66;1748783;81;21127;-74
2021/12/07 09:22:38;;;;;;;11.85;8.08;;;;;;;1.77;100.00;99431.31;1749140;82;21091;-75
2021/12/07 09:25:06;;;;;;;7.80;5.05;;;;;;;1.76;100.00;99420.93;1748979;82;21134;-77
2021/12/07 09:27:36;;;;;;;9.25;5.55;;;;;;;1.77;100.00;99423.52;1748091;82;21072;-76
2021/12/07 09:30:06;;;;;;;7.28;4.80;;;;;;;1.76;100.00;99424.38;1747804;82;21096;-76
2021/12/07 09:32:36;;;;;;;6.80;4.50;;;;;;;1.75;100.00;99425.27;1747131;82;21119;-75
2021/12/07 09:35:06;;;;;;;10.07;4.70;;;;;;;1.69;100.00;99425.34;1747525;82;21063;-75
2021/12/07 09:37:35;;;;;;;6.45;4.55;;;;;;;1.62;100.00;99434.93;1747228;81;21114;-76
2021/12/07 09:40:08;;;;;;;6.55;4.30;;;;;;;1.61;100.00;99437.53;1748602;81;21087;-76
2021/12/07 09:42:34;;;;;;;;;;;;;;;1.61;100.00;99437.53;1751259;82;21069;-77
2021/12/07 09:45:01;;;;;;;7.53;4.78;;;;;;;1.56;100.00;99436.73;1748750;82;20176;-76
2021/12/07 09:47:27;;;;;;;7.47;4.85;;;;;;;1.53;100.00;99434.19;1748192;82;21453;-75
2021/12/07 09:49:54;;;;;;;8.58;5.17;;;;;;;1.51;100.00;99429.45;1748215;82;21690;-76
2021/12/07 09:52:20;;;;;;;6.15;4.37;;;;;;;1.50;100.00;99421.26;1748050;82;21028;-76
2021/12/07 09:54:47;;;;;;;9.50;6.03;;;;;;;1.51;100.00;99417.77;1748308;82;21040;-76
2021/12/07 09:57:14;;;;;;;6.55;4.65;;;;;;;1.52;100.00;99414.28;1771051;80;21084;-76
2021/12/07 09:59:40;;;;;;;10.70;6.72;;;;;;;1.57;100.00;99415.11;1779218;80;21043;-76
2021/12/07 10:02:07;;;;;;;12.00;8.73;;;;;;;1.59;100.00;99418.55;1775002;79;21121;-76
2021/12/07 10:04:34;;;;;;;8.65;5.87;;;;;;;1.59;100.00;99420.70;1766631;80;21049;-78
2021/12/07 10:07:00;;;;;;;19.17;12.47;;;;;;;1.64;100.00;99410.27;1755585;80;21040;-77
2021/12/07 10:09:27;;;;;;;6.03;4.65;;;;;;;1.77;100.00;99423.52;1748395;80;21009;-77
2021/12/07 10:11:54;;;;;;;6.25;4.40;;;;;;;1.77;100.00;99423.52;1748166;81;21554;-77
2021/12/07 10:14:21;;;;;;;11.63;8.13;;;;;;;1.73;100.00;99423.13;1748788;82;21084;-77
2021/12/07 10:16:50;;;;;;;8.20;4.85;;;;;;;1.72;100.00;99423.98;1748763;81;21076;-77
2021/12/07 10:19:28;;;;;;;12.88;8.30;;;;;;;1.82;100.00;99420.86;1759318;80;21065;-81
2021/12/07 10:22:10;;;;;;;11.50;6.53;;;;;;;1.87;100.00;99421.66;1752871;81;21060;-80
2021/12/07 10:24:49;;;;;;;6.47;4.42;;;;;;;1.95;100.00;99435.38;1753158;81;21052;-81
2021/12/07 10:27:42;;;;;;;5.33;3.75;;;;;;;1.92;100.00;99435.88;1752991;81;21140;-81
2021/12/07 10:30:18;;;;;;;6.25;4.25;;;;;;;1.78;100.00;99439.50;1753035;81;21527;-80
2021/12/07 10:33:04;;;;;;;7.25;4.67;;;;;;;1.70;100.00;99450.41;1752671;81;21016;-78
2021/12/07 10:35:36;;;;;;;9.13;5.67;;;;;;;1.76;100.00;99439.95;1753169;81;21051;-80
2021/12/07 10:38:14;;;;;;;10.58;7.08;;;;;;;1.76;100.00;99443.84;1761742;80;21048;-80
2021/12/07 10:41:04;;;;;;;7.75;4.90;;;;;;;1.79;100.00;99423.03;1771104;80;21162;-81
2021/12/07 10:43:53;;;;;;;5.22;4.22;;;;;;;1.79;100.00;99423.03;1738680;80;21544;-80
2021/12/07 10:46:58;;;;;;;6.15;4.22;;;;;;;1.76;100.00;99424.38;1769158;80;21092;-80
2021/12/07 10:49:32;;;;;;;7.53;4.78;;;;;;;1.72;100.00;99425.29;1756549;80;21064;-80
2021/12/07 10:52:07;;;;;;;6.70;4.42;;;;;;;1.59;100.00;99422.45;1769280;80;21032;-80
2021/12/07 10:54:39;;;;;;;8.38;5.75;;;;;;;1.59;100.00;99422.45;1770255;80;21139;-80
2021/12/07 10:57:09;;;;;;;8.75;5.65;;;;;;;1.51;100.00;99417.77;1760581;80;21582;-79
2021/12/07 10:59:36;;;;;;;7.78;5.50;;;;;;;1.51;100.00;99407.39;1757457;80;21119;-80
2021/12/07 11:02:17;;;;;;;8.85;5.85;;;;;;;1.45;100.00;99406.59;1766019;80;21111;-77
2021/12/07 11:04:46;;;;;;;9.78;5.72;;;;;;;1.45;100.00;99406.59;1762809;80;21037;-79
2021/12/07 11:07:26;;;;;;;7.90;5.08;;;;;;;1.44;100.00;99421.72;1769215;80;21028;-79
2021/12/07 11:12:39;;;;;;;8.48;5.33;;;;;;;1.43;100.00;99421.31;1767057;80;21048;-77
2021/12/07 11:15:12;;;;;;;7.67;5.35;;;;;;;1.48;100.00;99416.52;1762251;80;21611;-80
2021/12/07 11:17:35;;;;;;;7.58;5.37;;;;;;;1.52;100.00;99416.88;1749614;80;21163;-78
2021/12/07 11:20:02;;;;;;;8.98;5.33;;;;;;;1.54;100.00;99409.94;1761302;80;21158;-77
2021/12/07 11:22:34;;;;;;;8.65;5.37;;;;;;;1.57;100.00;99416.41;1755600;80;21052;-76
2021/12/07 11:25:03;;;;;;;6.80;4.80;;;;;;;1.55;100.00;99425.95;1746345;82;21555;-75
2021/12/07 11:30:21;;;;;;;8.15;5.72;;;;;;;1.48;100.00;99429.49;1776570;80;21129;-76
2021/12/07 11:32:56;;;;;;;8.08;4.80;;;;;;;1.52;100.00;99433.75;1747451;82;21098;-77
2021/12/07 11:35:27;;;;;;;7.72;5.47;;;;;;;1.52;100.00;99433.75;1751753;80;21013;-76
2021/12/07 11:37:56;;;;;;;6.40;4.42;;;;;;;1.58;100.00;99417.67;1746338;82;21131;-76
2021/12/07 11:40:28;;;;;;;7.00;4.35;;;;;;;1.58;100.00;99417.67;1747447;80;21056;-77
2021/12/07 11:42:55;;;;;;;8.33;4.60;;;;;;;1.61;100.00;99411.58;1746583;80;21044;-78
2021/12/07 11:45:31;;;;;;;6.25;4.25;;;;;;;1.58;100.00;99414.22;1761183;80;21120;-77
2021/12/07 11:48:06;;;;;;;5.87;4.15;;;;;;;1.55;100.00;99416.87;1754635;80;21053;-79
2021/12/07 11:50:43;;;;;;;6.47;4.75;;;;;;;1.50;100.00;99419.95;1747546;80;21060;-78
2021/12/07 11:53:23;;;;;;;6.62;4.10;;;;;;;1.46;100.00;99414.78;1758043;80;21553;-78
2021/12/07 11:55:54;;;;;;;5.97;3.97;;;;;;;1.39;100.00;99416.18;1756229;80;21045;-77
2021/12/07 11:58:21;;;;;;;6.25;3.80;;;;;;;1.27;100.00;99406.80;1756950;80;26524;-78
2021/12/07 12:00:52;;;;;;;7.20;4.53;;;;;;;1.27;100.00;99406.80;1762928;80;21111;-78
2021/12/07 12:03:22;;;;;;;7.30;5.45;;;;;;;1.28;100.00;99416.28;1761999;80;21582;-75
2021/12/07 12:05:49;;;;;;;8.65;5.35;;;;;;;1.23;100.00;99404.66;1755174;80;21080;-78
2021/12/07 12:08:19;;;;;;;8.55;5.25;;;;;;;1.23;100.00;99403.36;1750819;80;21111;-77
2021/12/07 12:10:51;;;;;;;7.25;4.95;;;;;;;1.25;100.00;99407.25;1763763;80;21137;-78
2021/12/07 12:13:41;;;;;;;9.95;5.67;;;;;;;1.21;100.00;99414.64;1724094;82;21523;-77
2021/12/07 12:16:38;;;;;;;9.25;5.10;;;;;;;1.25;100.00;99426.70;1761747;80;21028;-77
2021/12/07 12:19:39;;;;;;;6.75;4.78;;;;;;;1.24;100.00;99432.75;1739373;80;21076;-78
2021/12/07 12:22:16;;;;;;;6.53;4.45;;;;;;;1.24;100.00;99432.75;1768634;80;21071;-80
2021/12/07 12:24:52;;;;;;;6.78;4.45;;;;;;;1.25;100.00;99427.56;1755531;81;21144;-79
2021/12/07 12:27:24;;;;;;;8.15;4.40;;;;;;;1.25;100.00;99432.75;1755379;81;21099;-77
2021/12/07 12:29:53;;;;;;;6.83;4.42;;;;;;;1.25;100.00;99440.97;1756001;81;21953;-78
2021/12/07 12:32:36;;;;;;;6.20;3.87;;;;;;;1.26;100.00;99446.56;1756010;81;21068;-77
2021/12/07 12:35:07;;;;;;;7.72;5.03;;;;;;;1.22;100.00;99452.66;1755896;81;21092;-78
2021/12/07 12:37:34;;;;;;;7.95;3.95;;;;;;;1.18;100.00;99454.88;1755973;80;21391;-78
2021/12/07 12:40:14;;;;;;;6.78;4.17;;;;;;;1.17;100.00;99450.11;1760332;80;21023;-76
2021/12/07 12:42:43;;;;;;;8.48;5.58;;;;;;;1.21;100.00;99453.55;1762417;80;21575;-76
2021/12/07 12:45:28;;;;;;;6.42;3.85;;;;;;;1.24;100.00;99462.17;1760005;80;21107;-77
2021/12/07 12:48:09;;;;;;;6.42;4.40;;;;;;;1.29;100.00;99458.23;1765312;80;21020;-76
2021/12/07 12:50:47;;;;;;;7.00;4.08;;;;;;;1.33;100.00;99454.70;1765962;80;21095;-77
2021/12/07 12:53:19;;;;;;;5.70;3.92;;;;;;;1.37;100.00;99447.31;1768658;80;21099;-74
2021/12/07 12:55:57;;;;;;;5.53;3.87;;;;;;;1.31;100.00;99448.70;1764291;80;21646;-77
2021/12/07 12:58:37;;;;;;;6.20;4.20;;;;;;;1.23;100.00;99446.16;1761851;80;21091;-76
2021/12/07 13:01:32;;;;;;;4.83;3.65;;;;;;;1.23;100.00;99446.16;1771935;80;21076;-76
2021/12/07 13:04:12;;;;;;;4.60;3.70;;;;;;;1.26;100.00;99446.56;1769214;80;21156;-77
2021/12/07 13:06:55;;;;;;;6.00;4.08;;;;;;;1.21;100.00;99435.39;1766106;80;21080;-77
2021/12/07 13:09:23;;;;;;;6.28;4.53;;;;;;;1.17;100.00;99436.28;1764884;80;21032;-76
2021/12/07 13:12:04;;;;;;;5.85;4.10;;;;;;;1.19;100.00;99435.84;1764510;80;21008;-76
2021/12/07 13:14:39;;;;;;;5.37;3.83;;;;;;;1.18;100.00;99440.62;1755646;80;21040;-75
2021/12/07 13:17:25;;;;;;;5.72;4.42;;;;;;;1.19;100.00;99434.54;1758850;80;21159;-74
2021/12/07 13:20:18;;;;;;;4.47;3.62;;;;;;;1.13;100.00;99444.55;1759927;80;21039;-75